sensor_id;sensor_type;location;lat;lon;timestamp;P1;durP1;ratioP1;P2;durP2;ratioP2
54883;SDS011;40776;52.880;6.016;2023-07-31T00:01:47;7.40;;;3.00;;
54883;SDS011;40776;52.880;6.016;2023-07-31T00:04:14;5.70;;;3.00;;
54883;SDS011;40776;52.880;6.016;2023-07-31T00:06:40;5.30;;;2.83;;
54883;SDS011;40776;52.880;6.016;2023-07-31T00:09:06;7.60;;;3.05;;
54883;SDS011;40776;52.880;6.016;2023-07-31T00:11:32;9.98;;;3.42;;
54883;SDS011;40776;52.880;6.016;2023-07-31T00:13:58;4.97;;;3.13;;
54883;SDS011;40776;52.880;6.016;2023-07-31T00:16:24;5.22;;;3.08;;
54883;SDS011;40776;52.880;6.016;2023-07-31T00:18:50;6.70;;;3.15;;
54883;SDS011;40776;52.880;6.016;2023-07-31T00:21:16;4.75;;;2.20;;
54883;SDS011;40776;52.880;6.016;2023-07-31T00:23:42;6.15;;;2.83;;
54883;SDS011;40776;52.880;6.016;2023-07-31T00:26:08;3.72;;;2.05;;
54883;SDS011;40776;52.880;6.016;2023-07-31T00:28:34;4.72;;;2.55;;
54883;SDS011;40776;52.880;6.016;2023-07-31T00:31:00;5.95;;;2.20;;
54883;SDS011;40776;52.880;6.016;2023-07-31T00:33:27;3.03;;;2.15;;
54883;SDS011;40776;52.880;6.016;2023-07-31T00:35:53;5.35;;;2.40;;
54883;SDS011;40776;52.880;6.016;2023-07-31T00:38:19;5.95;;;2.30;;
54883;SDS011;40776;52.880;6.016;2023-07-31T00:40:45;4.68;;;2.13;;
54883;SDS011;40776;52.880;6.016;2023-07-31T00:43:12;5.28;;;2.10;;
54883;SDS011;40776;52.880;6.016;2023-07-31T00:45:38;3.72;;;2.10;;
54883;SDS011;40776;52.880;6.016;2023-07-31T00:48:04;6.00;;;2.60;;
54883;SDS011;40776;52.880;6.016;2023-07-31T00:50:31;5.63;;;2.60;;
54883;SDS011;40776;52.880;6.016;2023-07-31T00:52:57;3.65;;;2.30;;
54883;SDS011;40776;52.880;6.016;2023-07-31T00:55:23;3.47;;;1.92;;
54883;SDS011;40776;52.880;6.016;2023-07-31T00:57:49;3.35;;;1.88;;
54883;SDS011;40776;52.880;6.016;2023-07-31T01:00:17;4.70;;;1.75;;
54883;SDS011;40776;52.880;6.016;2023-07-31T01:02:44;2.85;;;1.35;;
54883;SDS011;40776;52.880;6.016;2023-07-31T01:05:10;2.13;;;1.33;;
54883;SDS011;40776;52.880;6.016;2023-07-31T01:10:11;2.88;;;1.20;;
54883;SDS011;40776;52.880;6.016;2023-07-31T01:12:41;4.13;;;1.30;;
54883;SDS011;40776;52.880;6.016;2023-07-31T01:15:08;2.22;;;1.20;;
54883;SDS011;40776;52.880;6.016;2023-07-31T01:17:39;1.75;;;1.20;;
54883;SDS011;40776;52.880;6.016;2023-07-31T01:20:05;3.00;;;1.20;;
54883;SDS011;40776;52.880;6.016;2023-07-31T01:28:19;3.90;;;1.17;;
54883;SDS011;40776;52.880;6.016;2023-07-31T01:30:47;2.13;;;1.50;;
54883;SDS011;40776;52.880;6.016;2023-07-31T01:33:17;3.05;;;1.50;;
54883;SDS011;40776;52.880;6.016;2023-07-31T01:35:46;4.68;;;1.67;;
54883;SDS011;40776;52.880;6.016;2023-07-31T01:38:14;2.13;;;1.45;;
54883;SDS011;40776;52.880;6.016;2023-07-31T01:40:43;3.65;;;1.85;;
54883;SDS011;40776;52.880;6.016;2023-07-31T01:43:09;3.65;;;1.40;;
54883;SDS011;40776;52.880;6.016;2023-07-31T01:45:35;6.13;;;1.63;;
54883;SDS011;40776;52.880;6.016;2023-07-31T01:48:01;4.32;;;1.40;;
54883;SDS011;40776;52.880;6.016;2023-07-31T01:50:27;4.10;;;1.33;;
54883;SDS011;40776;52.880;6.016;2023-07-31T01:52:53;3.38;;;1.40;;
54883;SDS011;40776;52.880;6.016;2023-07-31T01:55:19;5.28;;;1.20;;
54883;SDS011;40776;52.880;6.016;2023-07-31T01:57:45;3.67;;;1.13;;
54883;SDS011;40776;52.880;6.016;2023-07-31T02:00:13;3.08;;;1.13;;
54883;SDS011;40776;52.880;6.016;2023-07-31T02:02:39;3.85;;;1.30;;
54883;SDS011;40776;52.880;6.016;2023-07-31T02:05:05;3.15;;;1.70;;
54883;SDS011;40776;52.880;6.016;2023-07-31T02:07:31;3.30;;;1.23;;
54883;SDS011;40776;52.880;6.016;2023-07-31T02:09:57;5.38;;;1.60;;
54883;SDS011;40776;52.880;6.016;2023-07-31T02:12:23;3.55;;;1.30;;
54883;SDS011;40776;52.880;6.016;2023-07-31T02:14:50;3.80;;;1.00;;
54883;SDS011;40776;52.880;6.016;2023-07-31T02:17:16;2.17;;;1.02;;
54883;SDS011;40776;52.880;6.016;2023-07-31T02:19:42;2.60;;;1.25;;
54883;SDS011;40776;52.880;6.016;2023-07-31T02:22:08;3.58;;;1.40;;
54883;SDS011;40776;52.880;6.016;2023-07-31T02:24:34;3.35;;;1.58;;
54883;SDS011;40776;52.880;6.016;2023-07-31T02:27:00;1.88;;;1.10;;
54883;SDS011;40776;52.880;6.016;2023-07-31T02:29:26;2.15;;;1.15;;
54883;SDS011;40776;52.880;6.016;2023-07-31T02:31:52;4.45;;;1.50;;
54883;SDS011;40776;52.880;6.016;2023-07-31T02:34:18;5.18;;;1.30;;
54883;SDS011;40776;52.880;6.016;2023-07-31T02:36:44;2.35;;;0.95;;
54883;SDS011;40776;52.880;6.016;2023-07-31T02:39:10;2.97;;;1.10;;
54883;SDS011;40776;52.880;6.016;2023-07-31T02:41:36;4.70;;;1.42;;
54883;SDS011;40776;52.880;6.016;2023-07-31T02:44:02;3.92;;;1.30;;
54883;SDS011;40776;52.880;6.016;2023-07-31T02:46:29;2.75;;;1.67;;
54883;SDS011;40776;52.880;6.016;2023-07-31T02:48:55;6.07;;;1.40;;
54883;SDS011;40776;52.880;6.016;2023-07-31T02:51:21;2.03;;;1.00;;
54883;SDS011;40776;52.880;6.016;2023-07-31T02:53:47;3.00;;;1.10;;
54883;SDS011;40776;52.880;6.016;2023-07-31T02:56:13;5.72;;;1.00;;
54883;SDS011;40776;52.880;6.016;2023-07-31T02:58:39;5.22;;;2.20;;
54883;SDS011;40776;52.880;6.016;2023-07-31T03:01:05;1.42;;;0.73;;
54883;SDS011;40776;52.880;6.016;2023-07-31T03:03:31;3.67;;;0.82;;
54883;SDS011;40776;52.880;6.016;2023-07-31T03:06:01;3.88;;;1.00;;
54883;SDS011;40776;52.880;6.016;2023-07-31T03:08:27;1.80;;;0.73;;
54883;SDS011;40776;52.880;6.016;2023-07-31T03:10:53;3.22;;;0.65;;
54883;SDS011;40776;52.880;6.016;2023-07-31T03:13:19;1.52;;;0.73;;
54883;SDS011;40776;52.880;6.016;2023-07-31T03:15:45;1.27;;;0.60;;
54883;SDS011;40776;52.880;6.016;2023-07-31T03:18:11;1.95;;;0.77;;
54883;SDS011;40776;52.880;6.016;2023-07-31T03:20:41;4.20;;;0.88;;
54883;SDS011;40776;52.880;6.016;2023-07-31T03:23:07;2.60;;;1.10;;
54883;SDS011;40776;52.880;6.016;2023-07-31T03:25:33;2.75;;;0.80;;
54883;SDS011;40776;52.880;6.016;2023-07-31T03:27:59;3.70;;;1.00;;
54883;SDS011;40776;52.880;6.016;2023-07-31T03:30:28;3.28;;;1.08;;
54883;SDS011;40776;52.880;6.016;2023-07-31T03:32:54;3.95;;;1.10;;
54883;SDS011;40776;52.880;6.016;2023-07-31T03:35:20;2.63;;;1.00;;
54883;SDS011;40776;52.880;6.016;2023-07-31T03:37:46;2.80;;;1.02;;
54883;SDS011;40776;52.880;6.016;2023-07-31T03:40:12;3.30;;;1.10;;
54883;SDS011;40776;52.880;6.016;2023-07-31T03:42:38;5.05;;;1.10;;
54883;SDS011;40776;52.880;6.016;2023-07-31T03:45:04;4.10;;;1.38;;
54883;SDS011;40776;52.880;6.016;2023-07-31T03:47:31;3.22;;;1.45;;
54883;SDS011;40776;52.880;6.016;2023-07-31T03:49:57;6.63;;;1.92;;
54883;SDS011;40776;52.880;6.016;2023-07-31T03:52:23;3.78;;;1.40;;
54883;SDS011;40776;52.880;6.016;2023-07-31T03:54:49;6.18;;;1.80;;
54883;SDS011;40776;52.880;6.016;2023-07-31T03:57:15;9.25;;;3.42;;
54883;SDS011;40776;52.880;6.016;2023-07-31T03:59:41;10.00;;;3.70;;
54883;SDS011;40776;52.880;6.016;2023-07-31T04:02:07;12.68;;;4.65;;
54883;SDS011;40776;52.880;6.016;2023-07-31T04:04:33;10.77;;;4.78;;
54883;SDS011;40776;52.880;6.016;2023-07-31T04:06:59;15.32;;;4.72;;
54883;SDS011;40776;52.880;6.016;2023-07-31T04:09:25;19.55;;;6.25;;
54883;SDS011;40776;52.880;6.016;2023-07-31T04:11:51;20.52;;;5.63;;
54883;SDS011;40776;52.880;6.016;2023-07-31T04:14:17;26.48;;;6.68;;
54883;SDS011;40776;52.880;6.016;2023-07-31T04:16:43;24.25;;;7.07;;
54883;SDS011;40776;52.880;6.016;2023-07-31T04:19:09;24.58;;;7.75;;
54883;SDS011;40776;52.880;6.016;2023-07-31T04:21:35;29.05;;;8.63;;
54883;SDS011;40776;52.880;6.016;2023-07-31T04:24:05;21.70;;;6.45;;
54883;SDS011;40776;52.880;6.016;2023-07-31T04:26:31;23.70;;;6.68;;
54883;SDS011;40776;52.880;6.016;2023-07-31T04:28:57;22.35;;;6.10;;
54883;SDS011;40776;52.880;6.016;2023-07-31T04:31:23;23.00;;;6.45;;
54883;SDS011;40776;52.880;6.016;2023-07-31T04:33:49;24.30;;;7.68;;
54883;SDS011;40776;52.880;6.016;2023-07-31T04:36:15;22.48;;;7.93;;
54883;SDS011;40776;52.880;6.016;2023-07-31T04:38:41;26.52;;;7.30;;
54883;SDS011;40776;52.880;6.016;2023-07-31T04:41:07;24.42;;;7.93;;
54883;SDS011;40776;52.880;6.016;2023-07-31T04:43:33;24.10;;;7.10;;
54883;SDS011;40776;52.880;6.016;2023-07-31T04:46:00;23.90;;;7.45;;
54883;SDS011;40776;52.880;6.016;2023-07-31T04:48:26;21.63;;;6.78;;
54883;SDS011;40776;52.880;6.016;2023-07-31T04:50:54;29.60;;;9.00;;
54883;SDS011;40776;52.880;6.016;2023-07-31T04:53:20;36.47;;;9.35;;
54883;SDS011;40776;52.880;6.016;2023-07-31T04:55:46;26.05;;;8.45;;
54883;SDS011;40776;52.880;6.016;2023-07-31T04:58:12;35.90;;;9.20;;
54883;SDS011;40776;52.880;6.016;2023-07-31T05:00:38;34.28;;;8.93;;
54883;SDS011;40776;52.880;6.016;2023-07-31T05:03:04;31.27;;;9.07;;
54883;SDS011;40776;52.880;6.016;2023-07-31T05:05:31;30.83;;;7.85;;
54883;SDS011;40776;52.880;6.016;2023-07-31T05:07:57;35.05;;;11.45;;
54883;SDS011;40776;52.880;6.016;2023-07-31T05:10:23;26.90;;;9.25;;
54883;SDS011;40776;52.880;6.016;2023-07-31T05:12:49;26.67;;;11.73;;
54883;SDS011;40776;52.880;6.016;2023-07-31T05:15:15;31.77;;;8.48;;
54883;SDS011;40776;52.880;6.016;2023-07-31T05:17:41;28.17;;;8.00;;
54883;SDS011;40776;52.880;6.016;2023-07-31T05:20:07;37.10;;;10.52;;
54883;SDS011;40776;52.880;6.016;2023-07-31T05:22:34;24.48;;;8.05;;
54883;SDS011;40776;52.880;6.016;2023-07-31T05:25:00;25.00;;;7.30;;
54883;SDS011;40776;52.880;6.016;2023-07-31T05:27:26;29.63;;;7.30;;
54883;SDS011;40776;52.880;6.016;2023-07-31T05:29:52;23.33;;;7.40;;
54883;SDS011;40776;52.880;6.016;2023-07-31T05:32:18;28.88;;;7.72;;
54883;SDS011;40776;52.880;6.016;2023-07-31T05:34:44;27.10;;;8.68;;
54883;SDS011;40776;52.880;6.016;2023-07-31T05:37:10;30.83;;;8.68;;
54883;SDS011;40776;52.880;6.016;2023-07-31T05:39:37;23.70;;;7.70;;
54883;SDS011;40776;52.880;6.016;2023-07-31T05:42:03;24.15;;;7.57;;
54883;SDS011;40776;52.880;6.016;2023-07-31T05:44:29;35.30;;;8.40;;
54883;SDS011;40776;52.880;6.016;2023-07-31T05:46:56;31.05;;;8.20;;
54883;SDS011;40776;52.880;6.016;2023-07-31T05:49:22;24.35;;;7.72;;
54883;SDS011;40776;52.880;6.016;2023-07-31T05:51:49;22.90;;;7.65;;
54883;SDS011;40776;52.880;6.016;2023-07-31T05:54:15;22.42;;;6.95;;
54883;SDS011;40776;52.880;6.016;2023-07-31T05:56:41;22.23;;;7.28;;
54883;SDS011;40776;52.880;6.016;2023-07-31T05:59:08;26.17;;;8.07;;
54883;SDS011;40776;52.880;6.016;2023-07-31T06:01:34;25.50;;;6.50;;
54883;SDS011;40776;52.880;6.016;2023-07-31T06:04:02;23.25;;;8.02;;
54883;SDS011;40776;52.880;6.016;2023-07-31T06:06:28;24.25;;;7.13;;
54883;SDS011;40776;52.880;6.016;2023-07-31T06:08:55;21.48;;;6.15;;
54883;SDS011;40776;52.880;6.016;2023-07-31T06:11:21;19.20;;;6.38;;
54883;SDS011;40776;52.880;6.016;2023-07-31T06:13:47;25.50;;;6.63;;
54883;SDS011;40776;52.880;6.016;2023-07-31T06:16:14;23.27;;;6.40;;
54883;SDS011;40776;52.880;6.016;2023-07-31T06:18:41;16.10;;;6.18;;
54883;SDS011;40776;52.880;6.016;2023-07-31T06:21:07;23.08;;;6.28;;
54883;SDS011;40776;52.880;6.016;2023-07-31T06:23:33;25.98;;;6.90;;
54883;SDS011;40776;52.880;6.016;2023-07-31T06:25:59;23.00;;;5.38;;
54883;SDS011;40776;52.880;6.016;2023-07-31T06:28:28;23.48;;;7.07;;
54883;SDS011;40776;52.880;6.016;2023-07-31T06:30:55;25.35;;;5.60;;
54883;SDS011;40776;52.880;6.016;2023-07-31T06:33:21;15.90;;;6.15;;
54883;SDS011;40776;52.880;6.016;2023-07-31T06:35:47;22.33;;;6.10;;
54883;SDS011;40776;52.880;6.016;2023-07-31T06:38:13;22.27;;;6.05;;
54883;SDS011;40776;52.880;6.016;2023-07-31T06:40:40;14.23;;;4.78;;
54883;SDS011;40776;52.880;6.016;2023-07-31T06:43:06;22.13;;;5.50;;
54883;SDS011;40776;52.880;6.016;2023-07-31T06:45:35;14.90;;;4.30;;
54883;SDS011;40776;52.880;6.016;2023-07-31T06:48:02;15.25;;;4.75;;
54883;SDS011;40776;52.880;6.016;2023-07-31T06:50:29;12.80;;;4.38;;
54883;SDS011;40776;52.880;6.016;2023-07-31T06:52:55;11.15;;;3.67;;
54883;SDS011;40776;52.880;6.016;2023-07-31T06:55:21;10.95;;;3.88;;
54883;SDS011;40776;52.880;6.016;2023-07-31T06:57:48;8.27;;;3.60;;
54883;SDS011;40776;52.880;6.016;2023-07-31T07:00:15;7.32;;;3.08;;
54883;SDS011;40776;52.880;6.016;2023-07-31T07:02:41;6.93;;;2.97;;
54883;SDS011;40776;52.880;6.016;2023-07-31T07:05:07;9.63;;;3.00;;
54883;SDS011;40776;52.880;6.016;2023-07-31T07:07:34;8.27;;;3.42;;
54883;SDS011;40776;52.880;6.016;2023-07-31T07:10:00;9.10;;;2.88;;
54883;SDS011;40776;52.880;6.016;2023-07-31T07:12:29;8.30;;;3.17;;
54883;SDS011;40776;52.880;6.016;2023-07-31T07:14:56;7.15;;;2.42;;
54883;SDS011;40776;52.880;6.016;2023-07-31T07:17:25;5.72;;;2.70;;
54883;SDS011;40776;52.880;6.016;2023-07-31T07:19:51;8.23;;;2.58;;
54883;SDS011;40776;52.880;6.016;2023-07-31T07:22:17;3.97;;;1.95;;
54883;SDS011;40776;52.880;6.016;2023-07-31T07:24:44;5.28;;;2.00;;
54883;SDS011;40776;52.880;6.016;2023-07-31T07:27:10;3.70;;;2.13;;
54883;SDS011;40776;52.880;6.016;2023-07-31T07:29:37;4.90;;;2.10;;
54883;SDS011;40776;52.880;6.016;2023-07-31T07:32:03;5.10;;;1.75;;
54883;SDS011;40776;52.880;6.016;2023-07-31T07:34:29;3.72;;;1.73;;
54883;SDS011;40776;52.880;6.016;2023-07-31T07:36:58;3.72;;;1.95;;
54883;SDS011;40776;52.880;6.016;2023-07-31T07:39:24;3.53;;;1.55;;
54883;SDS011;40776;52.880;6.016;2023-07-31T07:41:50;3.10;;;1.40;;
54883;SDS011;40776;52.880;6.016;2023-07-31T07:44:18;4.35;;;1.67;;
54883;SDS011;40776;52.880;6.016;2023-07-31T07:46:44;4.05;;;1.67;;
54883;SDS011;40776;52.880;6.016;2023-07-31T07:49:10;3.05;;;1.27;;
54883;SDS011;40776;52.880;6.016;2023-07-31T07:51:36;3.17;;;1.70;;
54883;SDS011;40776;52.880;6.016;2023-07-31T07:54:02;3.80;;;1.40;;
54883;SDS011;40776;52.880;6.016;2023-07-31T07:56:28;2.92;;;1.40;;
54883;SDS011;40776;52.880;6.016;2023-07-31T07:58:54;3.30;;;1.52;;
54883;SDS011;40776;52.880;6.016;2023-07-31T08:01:20;4.18;;;1.58;;
54883;SDS011;40776;52.880;6.016;2023-07-31T08:03:47;2.03;;;1.23;;
54883;SDS011;40776;52.880;6.016;2023-07-31T08:06:13;2.13;;;1.20;;
54883;SDS011;40776;52.880;6.016;2023-07-31T08:08:40;3.30;;;1.20;;
54883;SDS011;40776;52.880;6.016;2023-07-31T08:11:06;2.58;;;1.08;;
54883;SDS011;40776;52.880;6.016;2023-07-31T08:13:32;2.78;;;1.20;;
54883;SDS011;40776;52.880;6.016;2023-07-31T08:15:58;2.40;;;1.33;;
54883;SDS011;40776;52.880;6.016;2023-07-31T08:18:24;2.75;;;1.50;;
54883;SDS011;40776;52.880;6.016;2023-07-31T08:20:50;2.65;;;1.25;;
54883;SDS011;40776;52.880;6.016;2023-07-31T08:23:16;2.53;;;1.10;;
54883;SDS011;40776;52.880;6.016;2023-07-31T08:25:42;1.83;;;0.90;;
54883;SDS011;40776;52.880;6.016;2023-07-31T08:28:08;2.40;;;1.10;;
54883;SDS011;40776;52.880;6.016;2023-07-31T08:30:34;1.77;;;0.95;;
54883;SDS011;40776;52.880;6.016;2023-07-31T08:33:00;2.10;;;0.98;;
54883;SDS011;40776;52.880;6.016;2023-07-31T08:35:27;1.17;;;0.80;;
54883;SDS011;40776;52.880;6.016;2023-07-31T08:37:53;2.15;;;0.88;;
54883;SDS011;40776;52.880;6.016;2023-07-31T08:40:20;1.17;;;0.75;;
54883;SDS011;40776;52.880;6.016;2023-07-31T08:42:50;1.80;;;1.13;;
54883;SDS011;40776;52.880;6.016;2023-07-31T08:45:17;1.80;;;0.85;;
54883;SDS011;40776;52.880;6.016;2023-07-31T08:47:45;2.15;;;0.80;;
54883;SDS011;40776;52.880;6.016;2023-07-31T08:50:13;1.90;;;0.90;;
54883;SDS011;40776;52.880;6.016;2023-07-31T08:52:39;1.27;;;0.60;;
54883;SDS011;40776;52.880;6.016;2023-07-31T08:55:06;1.63;;;0.90;;
54883;SDS011;40776;52.880;6.016;2023-07-31T08:57:32;1.85;;;0.90;;
54883;SDS011;40776;52.880;6.016;2023-07-31T09:00:00;1.30;;;0.70;;
54883;SDS011;40776;52.880;6.016;2023-07-31T09:02:28;1.10;;;0.70;;
54883;SDS011;40776;52.880;6.016;2023-07-31T09:04:56;3.03;;;0.88;;
54883;SDS011;40776;52.880;6.016;2023-07-31T09:07:22;2.00;;;0.75;;
54883;SDS011;40776;52.880;6.016;2023-07-31T09:09:49;1.75;;;0.75;;
54883;SDS011;40776;52.880;6.016;2023-07-31T09:12:15;2.05;;;0.70;;
54883;SDS011;40776;52.880;6.016;2023-07-31T09:14:42;3.50;;;0.50;;
54883;SDS011;40776;52.880;6.016;2023-07-31T09:17:09;0.70;;;0.50;;
54883;SDS011;40776;52.880;6.016;2023-07-31T09:19:36;0.70;;;0.43;;
54883;SDS011;40776;52.880;6.016;2023-07-31T09:22:03;0.80;;;0.50;;
54883;SDS011;40776;52.880;6.016;2023-07-31T09:24:30;1.27;;;0.60;;
54883;SDS011;40776;52.880;6.016;2023-07-31T09:26:57;1.10;;;0.60;;
54883;SDS011;40776;52.880;6.016;2023-07-31T09:29:24;2.88;;;0.60;;
54883;SDS011;40776;52.880;6.016;2023-07-31T09:31:51;0.60;;;0.50;;
54883;SDS011;40776;52.880;6.016;2023-07-31T09:34:18;0.40;;;0.40;;
54883;SDS011;40776;52.880;6.016;2023-07-31T09:36:48;0.32;;;0.30;;
54883;SDS011;40776;52.880;6.016;2023-07-31T09:39:15;1.17;;;0.40;;
54883;SDS011;40776;52.880;6.016;2023-07-31T09:41:42;0.60;;;0.30;;
54883;SDS011;40776;52.880;6.016;2023-07-31T09:44:09;1.75;;;0.20;;
54883;SDS011;40776;52.880;6.016;2023-07-31T09:46:35;0.20;;;0.20;;
54883;SDS011;40776;52.880;6.016;2023-07-31T09:49:09;0.25;;;0.20;;
54883;SDS011;40776;52.880;6.016;2023-07-31T09:51:36;0.45;;;0.28;;
54883;SDS011;40776;52.880;6.016;2023-07-31T09:56:44;0.80;;;0.30;;
54883;SDS011;40776;52.880;6.016;2023-07-31T09:59:17;0.88;;;0.40;;
54883;SDS011;40776;52.880;6.016;2023-07-31T10:01:44;2.25;;;0.60;;
54883;SDS011;40776;52.880;6.016;2023-07-31T10:04:11;1.92;;;0.77;;
54883;SDS011;40776;52.880;6.016;2023-07-31T10:06:38;1.63;;;0.63;;
54883;SDS011;40776;52.880;6.016;2023-07-31T10:09:05;5.43;;;1.27;;
54883;SDS011;40776;52.880;6.016;2023-07-31T10:11:41;3.70;;;1.00;;
54883;SDS011;40776;52.880;6.016;2023-07-31T10:14:10;2.22;;;1.08;;
54883;SDS011;40776;52.880;6.016;2023-07-31T10:16:37;5.05;;;1.23;;
54883;SDS011;40776;52.880;6.016;2023-07-31T10:19:04;5.20;;;1.08;;
54883;SDS011;40776;52.880;6.016;2023-07-31T10:21:31;3.13;;;1.13;;
54883;SDS011;40776;52.880;6.016;2023-07-31T10:24:04;3.63;;;1.10;;
54883;SDS011;40776;52.880;6.016;2023-07-31T10:26:33;2.95;;;1.15;;
54883;SDS011;40776;52.880;6.016;2023-07-31T10:29:01;2.90;;;1.00;;
54883;SDS011;40776;52.880;6.016;2023-07-31T10:31:28;4.03;;;1.10;;
54883;SDS011;40776;52.880;6.016;2023-07-31T10:33:57;4.43;;;1.02;;
54883;SDS011;40776;52.880;6.016;2023-07-31T10:36:24;1.85;;;0.98;;
54883;SDS011;40776;52.880;6.016;2023-07-31T10:38:50;3.30;;;1.30;;
54883;SDS011;40776;52.880;6.016;2023-07-31T10:41:16;2.25;;;0.90;;
54883;SDS011;40776;52.880;6.016;2023-07-31T10:43:43;2.35;;;0.80;;
54883;SDS011;40776;52.880;6.016;2023-07-31T10:46:11;3.22;;;0.90;;
54883;SDS011;40776;52.880;6.016;2023-07-31T10:48:38;2.30;;;0.90;;
54883;SDS011;40776;52.880;6.016;2023-07-31T10:51:07;2.58;;;0.70;;
54883;SDS011;40776;52.880;6.016;2023-07-31T10:53:36;2.90;;;0.70;;
54883;SDS011;40776;52.880;6.016;2023-07-31T10:56:03;1.17;;;0.50;;
54883;SDS011;40776;52.880;6.016;2023-07-31T10:58:30;1.13;;;0.40;;
54883;SDS011;40776;52.880;6.016;2023-07-31T11:01:00;0.80;;;0.40;;
54883;SDS011;40776;52.880;6.016;2023-07-31T11:06:09;1.42;;;0.47;;
54883;SDS011;40776;52.880;6.016;2023-07-31T11:08:40;1.58;;;0.60;;
54883;SDS011;40776;52.880;6.016;2023-07-31T11:11:17;0.47;;;0.38;;
54883;SDS011;40776;52.880;6.016;2023-07-31T11:16:10;4.63;;;1.23;;
54883;SDS011;40776;52.880;6.016;2023-07-31T11:18:38;0.98;;;0.50;;
54883;SDS011;40776;52.880;6.016;2023-07-31T11:21:06;1.65;;;0.70;;
54883;SDS011;40776;52.880;6.016;2023-07-31T11:23:32;4.45;;;2.08;;
54883;SDS011;40776;52.880;6.016;2023-07-31T11:25:59;2.78;;;0.82;;
54883;SDS011;40776;52.880;6.016;2023-07-31T11:28:30;5.70;;;1.70;;
54883;SDS011;40776;52.880;6.016;2023-07-31T11:30:57;8.85;;;1.20;;
54883;SDS011;40776;52.880;6.016;2023-07-31T11:33:23;5.38;;;1.30;;
54883;SDS011;40776;52.880;6.016;2023-07-31T11:35:49;4.55;;;1.83;;
54883;SDS011;40776;52.880;6.016;2023-07-31T11:40:57;3.85;;;1.20;;
54883;SDS011;40776;52.880;6.016;2023-07-31T11:43:23;6.88;;;2.65;;
54883;SDS011;40776;52.880;6.016;2023-07-31T11:45:54;11.07;;;2.47;;
54883;SDS011;40776;52.880;6.016;2023-07-31T11:50:47;7.22;;;2.78;;
54883;SDS011;40776;52.880;6.016;2023-07-31T11:53:14;5.70;;;1.95;;
54883;SDS011;40776;52.880;6.016;2023-07-31T11:55:41;4.28;;;1.80;;
54883;SDS011;40776;52.880;6.016;2023-07-31T11:58:07;1.95;;;0.70;;
54883;SDS011;40776;52.880;6.016;2023-07-31T12:00:34;2.92;;;1.42;;
54883;SDS011;40776;52.880;6.016;2023-07-31T12:03:00;2.88;;;1.33;;
54883;SDS011;40776;52.880;6.016;2023-07-31T12:05:26;2.75;;;1.17;;
54883;SDS011;40776;52.880;6.016;2023-07-31T12:07:55;2.50;;;1.00;;
54883;SDS011;40776;52.880;6.016;2023-07-31T12:10:25;4.28;;;1.27;;
54883;SDS011;40776;52.880;6.016;2023-07-31T12:12:55;2.35;;;1.00;;
54883;SDS011;40776;52.880;6.016;2023-07-31T12:15:22;4.40;;;1.05;;
54883;SDS011;40776;52.880;6.016;2023-07-31T12:17:54;3.72;;;1.13;;
54883;SDS011;40776;52.880;6.016;2023-07-31T12:20:20;3.45;;;1.35;;
54883;SDS011;40776;52.880;6.016;2023-07-31T12:22:46;5.15;;;1.80;;
54883;SDS011;40776;52.880;6.016;2023-07-31T12:25:15;7.20;;;2.20;;
54883;SDS011;40776;52.880;6.016;2023-07-31T12:27:44;5.53;;;2.15;;
54883;SDS011;40776;52.880;6.016;2023-07-31T12:30:26;7.20;;;2.50;;
54883;SDS011;40776;52.880;6.016;2023-07-31T12:32:52;5.03;;;2.15;;
54883;SDS011;40776;52.880;6.016;2023-07-31T12:35:18;7.18;;;2.63;;
54883;SDS011;40776;52.880;6.016;2023-07-31T12:37:44;6.63;;;3.75;;
54883;SDS011;40776;52.880;6.016;2023-07-31T12:40:11;9.93;;;3.10;;
54883;SDS011;40776;52.880;6.016;2023-07-31T12:42:37;11.82;;;2.85;;
54883;SDS011;40776;52.880;6.016;2023-07-31T12:45:03;7.07;;;2.65;;
54883;SDS011;40776;52.880;6.016;2023-07-31T12:47:29;13.00;;;3.88;;
54883;SDS011;40776;52.880;6.016;2023-07-31T12:49:55;8.50;;;2.60;;
54883;SDS011;40776;52.880;6.016;2023-07-31T12:52:21;9.82;;;2.10;;
54883;SDS011;40776;52.880;6.016;2023-07-31T12:54:47;10.23;;;2.65;;
54883;SDS011;40776;52.880;6.016;2023-07-31T12:57:13;7.78;;;2.20;;
54883;SDS011;40776;52.880;6.016;2023-07-31T12:59:39;11.32;;;2.45;;
54883;SDS011;40776;52.880;6.016;2023-07-31T13:02:05;9.77;;;2.78;;
54883;SDS011;40776;52.880;6.016;2023-07-31T13:04:31;8.93;;;2.75;;
54883;SDS011;40776;52.880;6.016;2023-07-31T13:06:57;8.90;;;2.72;;
54883;SDS011;40776;52.880;6.016;2023-07-31T13:09:24;10.32;;;2.40;;
54883;SDS011;40776;52.880;6.016;2023-07-31T13:11:50;11.25;;;2.83;;
54883;SDS011;40776;52.880;6.016;2023-07-31T13:14:16;9.25;;;2.70;;
54883;SDS011;40776;52.880;6.016;2023-07-31T13:16:42;10.45;;;2.60;;
54883;SDS011;40776;52.880;6.016;2023-07-31T13:19:08;9.02;;;2.95;;
54883;SDS011;40776;52.880;6.016;2023-07-31T13:21:34;10.75;;;2.50;;
54883;SDS011;40776;52.880;6.016;2023-07-31T13:24:01;14.48;;;3.05;;
54883;SDS011;40776;52.880;6.016;2023-07-31T13:26:28;10.07;;;3.28;;
54883;SDS011;40776;52.880;6.016;2023-07-31T13:28:54;11.50;;;2.95;;
54883;SDS011;40776;52.880;6.016;2023-07-31T13:31:20;9.45;;;3.10;;
54883;SDS011;40776;52.880;6.016;2023-07-31T13:33:46;8.82;;;2.60;;
54883;SDS011;40776;52.880;6.016;2023-07-31T13:36:12;11.25;;;3.60;;
54883;SDS011;40776;52.880;6.016;2023-07-31T13:38:39;10.63;;;3.03;;
54883;SDS011;40776;52.880;6.016;2023-07-31T13:41:05;7.82;;;2.25;;
54883;SDS011;40776;52.880;6.016;2023-07-31T13:43:31;9.40;;;3.38;;
54883;SDS011;40776;52.880;6.016;2023-07-31T13:45:57;11.30;;;3.28;;
54883;SDS011;40776;52.880;6.016;2023-07-31T13:48:29;7.50;;;2.97;;
54883;SDS011;40776;52.880;6.016;2023-07-31T13:50:55;10.30;;;2.90;;
54883;SDS011;40776;52.880;6.016;2023-07-31T13:53:21;8.77;;;3.00;;
54883;SDS011;40776;52.880;6.016;2023-07-31T13:55:47;12.55;;;3.38;;
54883;SDS011;40776;52.880;6.016;2023-07-31T13:58:14;11.65;;;2.88;;
54883;SDS011;40776;52.880;6.016;2023-07-31T14:00:40;14.95;;;3.15;;
54883;SDS011;40776;52.880;6.016;2023-07-31T14:03:06;9.82;;;3.15;;
54883;SDS011;40776;52.880;6.016;2023-07-31T14:05:32;11.05;;;2.70;;
54883;SDS011;40776;52.880;6.016;2023-07-31T14:07:59;7.32;;;2.97;;
54883;SDS011;40776;52.880;6.016;2023-07-31T14:10:24;10.40;;;2.80;;
54883;SDS011;40776;52.880;6.016;2023-07-31T14:12:50;11.82;;;2.72;;
54883;SDS011;40776;52.880;6.016;2023-07-31T14:15:16;7.07;;;2.50;;
54883;SDS011;40776;52.880;6.016;2023-07-31T14:17:42;13.52;;;2.78;;
54883;SDS011;40776;52.880;6.016;2023-07-31T14:20:08;6.20;;;2.30;;
54883;SDS011;40776;52.880;6.016;2023-07-31T14:22:35;10.48;;;2.53;;
54883;SDS011;40776;52.880;6.016;2023-07-31T14:25:02;8.88;;;2.13;;
54883;SDS011;40776;52.880;6.016;2023-07-31T14:27:29;6.68;;;2.22;;
54883;SDS011;40776;52.880;6.016;2023-07-31T14:29:55;7.05;;;2.00;;
54883;SDS011;40776;52.880;6.016;2023-07-31T14:32:21;10.30;;;2.67;;
54883;SDS011;40776;52.880;6.016;2023-07-31T14:34:48;10.52;;;2.58;;
54883;SDS011;40776;52.880;6.016;2023-07-31T14:37:14;9.38;;;2.70;;
54883;SDS011;40776;52.880;6.016;2023-07-31T14:39:40;9.55;;;2.53;;
54883;SDS011;40776;52.880;6.016;2023-07-31T14:42:06;8.45;;;2.10;;
54883;SDS011;40776;52.880;6.016;2023-07-31T14:44:32;8.52;;;1.90;;
54883;SDS011;40776;52.880;6.016;2023-07-31T14:46:58;11.85;;;2.45;;
54883;SDS011;40776;52.880;6.016;2023-07-31T14:49:24;9.20;;;1.98;;
54883;SDS011;40776;52.880;6.016;2023-07-31T14:51:52;9.60;;;2.30;;
54883;SDS011;40776;52.880;6.016;2023-07-31T14:54:18;8.82;;;2.75;;
54883;SDS011;40776;52.880;6.016;2023-07-31T14:56:44;8.32;;;2.10;;
54883;SDS011;40776;52.880;6.016;2023-07-31T14:59:10;8.07;;;2.70;;
54883;SDS011;40776;52.880;6.016;2023-07-31T15:01:37;10.82;;;2.08;;